createdAt,value
2022-12-10T00:02:59.775Z,96.60
2022-12-10T00:05:30.291Z,96.70
2022-12-10T00:08:08.643Z,96.70
2022-12-10T00:10:49.032Z,96.70
2022-12-10T00:13:29.363Z,96.80
2022-12-10T00:16:07.698Z,96.70
2022-12-10T00:18:58.122Z,96.80
2022-12-10T00:21:37.938Z,96.80
2022-12-10T00:24:07.294Z,96.70
2022-12-10T00:26:39.889Z,96.80
2022-12-10T00:29:08.635Z,96.70
2022-12-10T00:31:39.479Z,96.70
2022-12-10T00:34:18.452Z,96.60
2022-12-10T00:36:52.444Z,96.60
2022-12-10T00:39:30.166Z,96.60
2022-12-10T00:41:59.612Z,96.60
2022-12-10T00:44:35.586Z,96.60
2022-12-10T00:47:10.656Z,96.70
2022-12-10T00:49:40.571Z,96.70
2022-12-10T00:52:16.366Z,96.70
2022-12-10T00:54:48.964Z,96.70
2022-12-10T00:57:29.024Z,96.70
2022-12-10T00:59:58.546Z,96.70
2022-12-10T01:02:30.115Z,96.70
2022-12-10T01:05:00.545Z,96.70
2022-12-10T01:07:30.901Z,96.70
2022-12-10T01:10:01.939Z,96.80
2022-12-10T01:12:33.967Z,96.80
2022-12-10T01:15:20.155Z,96.80
2022-12-10T01:17:49.824Z,96.80
2022-12-10T01:20:19.697Z,96.80
2022-12-10T01:22:55.500Z,96.80
2022-12-10T01:25:39.299Z,96.80
2022-12-10T01:28:10.266Z,96.80
2022-12-10T01:30:40.380Z,96.80
2022-12-10T01:33:10.343Z,96.80
2022-12-10T01:35:55.739Z,96.80
2022-12-10T01:38:28.862Z,96.80
2022-12-10T01:41:19.576Z,96.80
2022-12-10T01:44:30.040Z,96.80
2022-12-10T01:47:13.211Z,96.80
2022-12-10T01:49:50.851Z,96.90
2022-12-10T01:52:29.589Z,96.90
2022-12-10T01:55:01.043Z,96.90
2022-12-10T01:57:30.913Z,96.90
2022-12-10T02:00:09.504Z,96.90
2022-12-10T02:03:10.879Z,96.90
2022-12-10T02:05:50.754Z,96.90
2022-12-10T02:08:38.715Z,96.90
2022-12-10T02:11:29.150Z,97.00
2022-12-10T02:14:49.429Z,97.00
2022-12-10T02:17:51.693Z,96.90
2022-12-10T02:20:38.433Z,96.90
2022-12-10T02:23:31.724Z,96.90
2022-12-10T02:26:20.518Z,96.90
2022-12-10T02:29:25.569Z,96.90
2022-12-10T02:32:45.338Z,96.80
2022-12-10T02:35:38.418Z,96.80
2022-12-10T02:38:31.054Z,96.80
2022-12-10T02:41:12.135Z,96.80
2022-12-10T02:43:47.953Z,96.90
2022-12-10T02:49:12.108Z,96.90
2022-12-10T02:51:59.708Z,96.90
2022-12-10T02:58:09.048Z,96.90
2022-12-10T03:01:11.335Z,96.90
2022-12-10T03:03:58.829Z,96.90
2022-12-10T03:06:37.664Z,96.90
2022-12-10T03:09:26.108Z,97.20
2022-12-10T03:12:10.151Z,96.90
2022-12-10T03:14:48.747Z,96.90
2022-12-10T03:18:19.693Z,96.90
2022-12-10T03:20:41.000Z,97.00
2022-12-10T03:24:01.560Z,96.90
2022-12-10T03:26:31.063Z,96.90
2022-12-10T03:29:10.569Z,97.00
2022-12-10T03:31:52.030Z,97.00
2022-12-10T03:35:50.507Z,97.00
2022-12-10T03:37:55.855Z,96.90
2022-12-10T03:40:29.359Z,96.90
2022-12-10T03:43:09.371Z,96.90
2022-12-10T03:45:48.453Z,96.90
2022-12-10T03:48:48.411Z,96.90
2022-12-10T03:51:30.944Z,97.00
2022-12-10T03:54:00.778Z,97.00
2022-12-10T03:56:30.362Z,97.00
2022-12-10T03:59:00.401Z,97.00
2022-12-10T04:01:29.905Z,97.00
2022-12-10T04:03:57.127Z,97.00
2022-12-10T04:06:29.193Z,97.00
2022-12-10T04:08:58.776Z,97.00
2022-12-10T04:11:31.787Z,97.00
2022-12-10T04:14:19.975Z,97.00
2022-12-10T04:16:52.506Z,97.00
2022-12-10T04:19:27.766Z,97.00
2022-12-10T04:22:17.639Z,97.00
2022-12-10T04:25:03.215Z,97.00
2022-12-10T04:27:37.833Z,97.00
2022-12-10T04:30:07.901Z,97.00
2022-12-10T04:32:37.578Z,96.90
2022-12-10T04:35:07.715Z,96.90
2022-12-10T04:37:41.962Z,96.80
2022-12-10T04:40:09.880Z,96.70
2022-12-10T04:42:39.522Z,96.60
2022-12-10T04:45:09.300Z,96.50
2022-12-10T04:47:37.699Z,96.50
2022-12-10T04:50:10.592Z,96.50
2022-12-10T04:52:37.992Z,96.50
2022-12-10T04:55:08.099Z,96.50
2022-12-10T04:57:42.353Z,96.40
2022-12-10T05:00:11.565Z,96.50
2022-12-10T05:02:41.054Z,96.50
2022-12-10T05:05:10.916Z,96.50
2022-12-10T05:07:40.406Z,96.40
2022-12-10T05:10:08.120Z,96.40
2022-12-10T05:12:38.014Z,96.40
2022-12-10T05:15:07.972Z,96.70
2022-12-10T05:17:36.583Z,96.40
2022-12-10T05:20:06.889Z,96.40
2022-12-10T05:22:58.941Z,96.40
2022-12-10T05:25:28.574Z,96.40
2022-12-10T05:27:57.820Z,96.30
2022-12-10T05:30:30.365Z,96.30
2022-12-10T05:32:58.753Z,96.30
2022-12-10T05:35:28.341Z,96.30
2022-12-10T05:38:02.954Z,96.30
2022-12-10T05:40:30.313Z,96.40
2022-12-10T05:42:59.733Z,96.40
2022-12-10T05:45:29.264Z,96.30
2022-12-10T05:48:01.927Z,96.30
2022-12-10T05:50:28.935Z,96.40
2022-12-10T05:52:58.215Z,96.40
2022-12-10T05:55:38.299Z,96.30
2022-12-10T05:58:09.894Z,96.30
2022-12-10T06:00:40.596Z,96.30
2022-12-10T06:03:11.858Z,96.30
2022-12-10T06:05:42.196Z,96.40
2022-12-10T06:08:09.587Z,96.40
2022-12-10T06:10:39.616Z,96.40
2022-12-10T06:13:06.874Z,96.40
2022-12-10T06:15:37.935Z,96.50
2022-12-10T06:18:06.410Z,96.50
2022-12-10T06:20:43.569Z,96.50
2022-12-10T06:23:15.548Z,96.50
2022-12-10T06:25:55.448Z,96.40
2022-12-10T06:28:22.740Z,96.40
2022-12-10T06:30:49.845Z,96.50
2022-12-10T06:33:19.650Z,96.40
2022-12-10T06:35:49.821Z,96.50
2022-12-10T06:38:20.146Z,96.50
2022-12-10T06:40:49.367Z,96.50
2022-12-10T06:43:16.677Z,96.60
2022-12-10T06:45:48.070Z,96.60
2022-12-10T06:48:23.763Z,96.60
2022-12-10T06:50:59.065Z,96.90
2022-12-10T06:53:28.857Z,96.60
2022-12-10T06:55:59.610Z,96.70
2022-12-10T06:58:32.681Z,96.70
2022-12-10T07:01:31.385Z,96.70
2022-12-10T07:04:01.200Z,96.60
2022-12-10T07:06:31.648Z,96.60
2022-12-10T07:09:01.732Z,96.50
2022-12-10T07:11:31.586Z,96.50
2022-12-10T07:13:59.891Z,96.60
2022-12-10T07:16:29.495Z,96.60
2022-12-10T07:18:58.340Z,96.70
2022-12-10T07:22:55.186Z,96.70
2022-12-10T07:24:32.011Z,96.70
2022-12-10T07:27:01.760Z,96.70
2022-12-10T07:29:30.181Z,96.70
2022-12-10T07:32:00.771Z,96.70
2022-12-10T07:38:45.507Z,96.70
2022-12-10T07:41:45.926Z,96.70
2022-12-10T07:44:29.608Z,96.70
2022-12-10T07:47:08.538Z,96.70
2022-12-10T07:49:39.423Z,96.70
2022-12-10T07:52:11.147Z,96.70
2022-12-10T07:54:38.327Z,96.80
2022-12-10T07:57:08.901Z,96.70
2022-12-10T08:03:10.278Z,96.70
2022-12-10T08:05:40.207Z,96.80
2022-12-10T08:08:10.035Z,96.80
2022-12-10T08:10:38.814Z,96.80
2022-12-10T08:13:08.515Z,96.80
2022-12-10T08:15:46.019Z,96.70
2022-12-10T08:18:32.245Z,96.70
2022-12-10T08:21:11.032Z,96.70
2022-12-10T08:23:41.039Z,96.60
2022-12-10T08:26:12.656Z,96.70
2022-12-10T08:28:40.208Z,96.60
2022-12-10T08:31:10.672Z,96.60
2022-12-10T08:33:41.586Z,96.60
2022-12-10T08:36:11.241Z,96.60
2022-12-10T08:38:41.393Z,96.60
2022-12-10T08:41:12.961Z,96.60
2022-12-10T08:43:40.799Z,96.60
2022-12-10T08:46:11.249Z,96.60
2022-12-10T08:48:53.767Z,96.50
2022-12-10T08:51:31.005Z,96.50
2022-12-10T08:54:01.625Z,96.60
2022-12-10T08:56:31.954Z,96.60
2022-12-10T08:59:02.281Z,96.60
2022-12-10T09:01:31.949Z,96.60
2022-12-10T09:04:01.801Z,96.60
2022-12-10T09:06:29.925Z,96.60
2022-12-10T09:09:11.802Z,96.60
2022-12-10T09:11:41.685Z,96.50
2022-12-10T09:14:08.800Z,96.50
2022-12-10T09:16:40.174Z,96.60
2022-12-10T09:19:09.742Z,96.90
2022-12-10T09:21:37.723Z,96.70
2022-12-10T09:24:10.887Z,96.60
2022-12-10T09:27:01.254Z,96.60
2022-12-10T09:29:34.059Z,96.60
2022-12-10T09:32:09.674Z,96.60
2022-12-10T09:35:10.264Z,96.60
2022-12-10T09:37:40.534Z,96.60
2022-12-10T09:40:11.453Z,96.50
2022-12-10T09:43:20.446Z,96.60
2022-12-10T09:46:08.498Z,96.50
2022-12-10T09:49:00.576Z,96.50
2022-12-10T09:51:31.239Z,96.50
2022-12-10T09:54:00.403Z,96.50
2022-12-10T09:56:41.292Z,96.50
2022-12-10T09:59:29.536Z,96.50
2022-12-10T10:02:23.278Z,96.50
2022-12-10T10:05:11.173Z,96.50
2022-12-10T10:08:40.667Z,96.50
2022-12-10T10:11:22.541Z,96.50
2022-12-10T10:14:53.007Z,96.50
2022-12-10T10:20:58.866Z,96.40
2022-12-10T10:27:14.371Z,96.50
2022-12-10T10:30:19.482Z,96.40
2022-12-10T10:33:01.204Z,96.50
2022-12-10T10:35:40.238Z,96.50
2022-12-10T10:38:31.614Z,96.50
2022-12-10T10:41:01.617Z,96.50
2022-12-10T10:43:51.832Z,96.50
2022-12-10T10:46:31.841Z,96.40
2022-12-10T10:49:28.895Z,96.40
2022-12-10T10:52:22.441Z,96.50
2022-12-10T10:55:09.655Z,96.40
2022-12-10T10:58:10.494Z,96.40
2022-12-10T11:00:40.097Z,96.40
2022-12-10T11:03:21.720Z,96.40
2022-12-10T11:13:41.180Z,96.50
2022-12-10T11:16:41.148Z,96.50
2022-12-10T11:20:19.147Z,96.50
2022-12-10T11:23:22.010Z,96.50
2022-12-10T11:26:13.511Z,96.40
2022-12-10T11:29:31.372Z,96.40
2022-12-10T11:32:26.261Z,96.40
2022-12-10T11:35:30.426Z,96.30
2022-12-10T11:39:19.936Z,96.30
2022-12-10T11:42:10.917Z,96.30
2022-12-10T11:45:11.511Z,96.40
2022-12-10T11:47:48.743Z,96.30
2022-12-10T11:50:22.043Z,96.30
2022-12-10T11:53:13.479Z,96.30
2022-12-10T11:55:56.644Z,96.30
2022-12-10T11:58:40.900Z,96.30
2022-12-10T12:01:20.088Z,96.30
2022-12-10T12:04:21.451Z,96.30
2022-12-10T12:07:01.939Z,96.40
2022-12-10T12:10:06.972Z,96.30
2022-12-10T12:12:55.846Z,96.30
2022-12-10T12:15:39.152Z,96.30
2022-12-10T12:18:28.950Z,96.40
2022-12-10T12:21:03.559Z,96.40
2022-12-10T12:24:04.635Z,96.40
2022-12-10T12:26:42.683Z,96.40
2022-12-10T12:32:32.493Z,96.40
2022-12-10T12:35:53.251Z,96.40
2022-12-10T12:39:02.663Z,96.30
2022-12-10T12:42:36.577Z,96.50
2022-12-10T12:45:39.244Z,96.50
2022-12-10T12:48:12.937Z,96.50
2022-12-10T12:50:57.756Z,96.50
2022-12-10T12:53:35.572Z,96.50
2022-12-10T12:56:38.169Z,96.50
2022-12-10T12:59:59.491Z,96.60
2022-12-10T13:03:06.280Z,96.60
2022-12-10T13:05:49.336Z,96.50
2022-12-10T13:08:31.817Z,96.50
2022-12-10T13:11:00.741Z,96.40
2022-12-10T13:13:32.358Z,96.40
2022-12-10T13:16:38.334Z,96.60
2022-12-10T13:19:36.417Z,96.60
2022-12-10T13:22:33.758Z,96.50
2022-12-10T13:25:19.023Z,96.50
2022-12-10T13:28:39.171Z,96.50
2022-12-10T13:31:12.216Z,96.60
2022-12-10T13:34:00.685Z,96.60
2022-12-10T13:36:39.363Z,96.90
2022-12-10T13:39:07.834Z,96.60
2022-12-10T13:42:00.934Z,96.50
2022-12-10T13:44:49.500Z,96.60
2022-12-10T13:48:03.736Z,96.70
2022-12-10T13:50:55.282Z,96.70
2022-12-10T13:59:11.121Z,96.70
2022-12-10T14:01:52.063Z,96.60
2022-12-10T14:04:44.086Z,96.60
2022-12-10T14:07:23.681Z,96.70
2022-12-10T14:10:31.012Z,96.70
2022-12-10T14:13:03.009Z,96.70
2022-12-10T14:15:31.174Z,96.70
2022-12-10T14:18:31.927Z,96.70
2022-12-10T14:21:31.230Z,96.80
2022-12-10T14:24:51.616Z,96.70
2022-12-10T14:27:32.947Z,96.70
2022-12-10T14:30:10.322Z,96.70
2022-12-10T14:32:43.705Z,96.70
2022-12-10T14:35:25.630Z,96.70
2022-12-10T14:38:07.612Z,96.60
2022-12-10T14:40:43.323Z,96.70
2022-12-10T14:43:35.281Z,96.70
2022-12-10T14:46:17.404Z,96.80
2022-12-10T14:48:49.676Z,96.80
2022-12-10T14:51:23.481Z,96.80
2022-12-10T14:53:53.731Z,96.80
2022-12-10T14:56:33.403Z,96.80
2022-12-10T14:59:23.740Z,96.80
2022-12-10T15:02:08.811Z,96.80
2022-12-10T15:04:48.970Z,96.90
2022-12-10T15:07:20.893Z,96.90
2022-12-10T15:09:51.864Z,96.90
2022-12-10T15:12:53.636Z,96.90
2022-12-10T15:15:40.689Z,96.80
2022-12-10T15:18:10.875Z,97.10
2022-12-10T15:21:06.245Z,96.90
2022-12-10T15:23:43.499Z,96.90
2022-12-10T15:26:10.541Z,96.90
2022-12-10T15:28:59.887Z,96.90
2022-12-10T15:31:26.966Z,96.90
2022-12-10T15:35:00.560Z,96.90
2022-12-10T16:06:42.625Z,96.90
2022-12-10T16:24:13.776Z,97.00
2022-12-10T16:26:42.108Z,97.00
2022-12-10T16:46:37.005Z,97.00
2022-12-10T16:49:08.414Z,97.10
2022-12-10T16:51:39.633Z,97.20
2022-12-10T16:54:06.684Z,97.10
2022-12-10T17:01:15.239Z,97.10
2022-12-10T17:03:43.768Z,97.20
2022-12-10T17:06:12.761Z,97.20
2022-12-10T17:08:43.439Z,97.20
2022-12-10T17:11:39.614Z,97.20
2022-12-10T17:15:16.765Z,97.20
2022-12-10T17:17:12.764Z,97.20
2022-12-10T17:24:13.588Z,97.30
2022-12-10T17:26:43.817Z,97.30
2022-12-10T17:30:03.775Z,97.30
2022-12-10T17:32:33.733Z,97.30
2022-12-10T17:35:18.771Z,97.30
2022-12-10T17:38:01.183Z,97.30
2022-12-10T17:40:37.262Z,97.30
2022-12-10T17:43:09.979Z,97.30
2022-12-10T17:48:39.768Z,97.30
2022-12-10T17:51:13.104Z,97.20
2022-12-10T17:54:50.049Z,97.20
2022-12-10T17:57:32.903Z,97.20
2022-12-10T18:00:32.033Z,97.20
2022-12-10T18:03:39.977Z,97.20
2022-12-10T18:06:55.263Z,97.10
2022-12-10T18:10:13.804Z,97.20
2022-12-10T18:15:31.489Z,97.20
2022-12-10T18:18:39.534Z,97.20
2022-12-10T18:21:09.140Z,97.20
2022-12-10T18:23:50.729Z,97.20
2022-12-10T18:26:26.380Z,97.20
2022-12-10T18:29:09.952Z,97.20
2022-12-10T18:31:37.191Z,97.30
2022-12-10T18:34:10.053Z,97.20
2022-12-10T18:36:41.706Z,97.20
2022-12-10T18:39:21.584Z,97.20
2022-12-10T18:46:01.787Z,97.20
2022-12-10T18:48:31.970Z,97.10
2022-12-10T18:50:59.129Z,97.20
2022-12-10T18:53:33.638Z,97.20
2022-12-10T18:56:04.504Z,97.20
2022-12-10T18:58:32.050Z,97.20
2022-12-10T19:00:59.665Z,97.30
2022-12-10T19:03:27.639Z,97.20
2022-12-10T19:05:54.783Z,97.30
2022-12-10T19:08:22.082Z,97.20
2022-12-10T19:10:49.631Z,97.20
2022-12-10T19:13:21.479Z,97.20
2022-12-10T19:15:50.344Z,97.30
2022-12-10T19:18:41.016Z,97.30
2022-12-10T19:21:14.520Z,97.20
2022-12-10T19:23:42.536Z,97.20
2022-12-10T19:26:33.206Z,97.20
2022-12-10T19:29:03.013Z,97.20
2022-12-10T19:31:33.127Z,97.20
2022-12-10T19:34:03.025Z,97.20
2022-12-10T19:36:31.124Z,97.20
2022-12-10T19:39:11.727Z,97.30
2022-12-10T19:41:41.229Z,97.20
2022-12-10T19:44:33.532Z,97.50
2022-12-10T19:47:14.027Z,97.20
2022-12-10T19:49:56.720Z,97.20
2022-12-10T19:52:33.807Z,97.20
2022-12-10T19:55:01.390Z,97.20
2022-12-10T19:57:31.716Z,97.20
2022-12-10T20:00:01.433Z,97.30
2022-12-10T20:06:40.603Z,97.30
2022-12-10T20:09:30.771Z,97.20
2022-12-10T20:12:02.613Z,97.30
2022-12-10T20:14:32.228Z,97.20
2022-12-10T20:17:04.207Z,97.30
2022-12-10T20:19:36.872Z,97.30
2022-12-10T20:22:34.694Z,97.30
2022-12-10T20:25:11.144Z,97.30
2022-12-10T20:27:42.106Z,97.30
2022-12-10T20:30:33.067Z,97.30
2022-12-10T20:33:37.622Z,97.30
2022-12-10T20:36:01.865Z,97.30
2022-12-10T20:38:49.881Z,97.20
2022-12-10T20:45:13.595Z,97.30
2022-12-10T20:48:05.333Z,97.20
2022-12-10T20:51:17.533Z,97.20
2022-12-10T20:53:49.930Z,97.20
2022-12-10T21:01:00.119Z,97.20
2022-12-10T21:03:54.232Z,97.20
2022-12-10T21:06:32.926Z,97.20
2022-12-10T21:09:14.543Z,97.20
2022-12-10T21:14:53.964Z,97.20
2022-12-10T21:18:47.341Z,97.20
2022-12-10T21:24:00.387Z,97.20
2022-12-10T21:26:43.554Z,97.20
2022-12-10T21:29:44.445Z,97.20
2022-12-10T21:33:09.613Z,97.20
2022-12-10T21:36:01.559Z,97.20
2022-12-10T21:39:55.200Z,97.20
2022-12-10T21:43:33.552Z,97.20
2022-12-10T21:49:58.570Z,97.10
2022-12-10T21:52:25.666Z,97.10
2022-12-10T21:55:02.545Z,97.10
2022-12-10T21:57:33.068Z,97.10
2022-12-10T22:00:04.868Z,97.20
2022-12-10T22:03:23.362Z,97.20
2022-12-10T22:05:53.799Z,97.20
2022-12-10T22:08:33.968Z,97.20
2022-12-10T22:11:52.068Z,97.20
2022-12-10T22:15:04.377Z,97.20
2022-12-10T22:17:31.520Z,97.10
2022-12-10T22:20:03.819Z,97.20
2022-12-10T22:22:32.037Z,97.10
2022-12-10T22:25:01.974Z,97.10
2022-12-10T22:28:20.311Z,97.10
2022-12-10T22:31:02.709Z,97.10
2022-12-10T22:33:46.516Z,97.10
2022-12-10T22:36:53.789Z,97.10
2022-12-10T22:39:24.011Z,97.10
2022-12-10T22:41:53.875Z,97.20
2022-12-10T22:44:24.041Z,97.20
2022-12-10T22:46:59.798Z,97.20
2022-12-10T22:49:39.135Z,97.20
2022-12-10T22:55:23.528Z,97.20
2022-12-10T22:57:53.855Z,97.20
2022-12-10T23:00:32.680Z,97.20
2022-12-10T23:03:00.944Z,97.20
2022-12-10T23:05:40.293Z,97.20
2022-12-10T23:08:12.473Z,97.20
2022-12-10T23:10:43.076Z,97.20
2022-12-10T23:13:14.405Z,97.20
2022-12-10T23:15:52.826Z,97.20
2022-12-10T23:18:23.034Z,97.20
2022-12-10T23:20:53.067Z,97.20
2022-12-10T23:23:20.753Z,97.40
2022-12-10T23:25:52.894Z,97.20
2022-12-10T23:28:26.900Z,97.20
2022-12-10T23:31:02.876Z,97.10
2022-12-10T23:33:32.883Z,97.20
2022-12-10T23:36:03.089Z,97.20
2022-12-10T23:38:32.792Z,97.20
2022-12-10T23:41:03.054Z,97.20
2022-12-10T23:43:33.150Z,97.20
2022-12-10T23:46:03.281Z,97.20
2022-12-10T23:48:33.319Z,97.20
2022-12-10T23:51:03.079Z,97.20
2022-12-10T23:53:33.177Z,97.20
2022-12-10T23:56:00.634Z,97.20
2022-12-10T23:58:35.336Z,97.20
